createdAt,value
2019-02-19T00:00:15.412Z,3.80
2019-02-19T00:02:42.429Z,3.60
2019-02-19T00:05:09.547Z,3.50
2019-02-19T00:07:36.609Z,3.40
2019-02-19T00:10:03.979Z,3.40
2019-02-19T00:12:30.991Z,3.40
2019-02-19T00:14:58.037Z,3.40
2019-02-19T00:17:24.917Z,3.40
2019-02-19T00:19:51.995Z,3.50
2019-02-19T00:22:19.012Z,3.50
2019-02-19T00:24:46.097Z,3.40
2019-02-19T00:27:13.014Z,3.40
2019-02-19T00:29:40.075Z,3.50
2019-02-19T00:32:07.192Z,3.40
2019-02-19T00:34:34.136Z,3.50
2019-02-19T00:37:01.091Z,3.40
2019-02-19T00:39:28.004Z,3.40
2019-02-19T00:41:54.900Z,3.20
2019-02-19T00:44:21.940Z,3.20
2019-02-19T00:46:49.038Z,3.20
2019-02-19T00:49:16.159Z,3.30
2019-02-19T00:51:43.270Z,3.30
2019-02-19T00:54:10.218Z,3.20
2019-02-19T00:56:39.015Z,3.30
2019-02-19T00:59:06.018Z,3.30
2019-02-19T01:01:33.002Z,3.30
2019-02-19T01:04:00.029Z,3.30
2019-02-19T01:06:27.056Z,3.20
2019-02-19T01:08:54.274Z,3.20
2019-02-19T01:11:22.628Z,3.20
2019-02-19T01:13:49.653Z,3.20
2019-02-19T01:16:16.618Z,3.20
2019-02-19T01:18:43.606Z,3.10
2019-02-19T01:21:10.665Z,3.10
2019-02-19T01:23:37.613Z,3.20
2019-02-19T01:26:04.556Z,3.20
2019-02-19T01:28:31.514Z,3.10
2019-02-19T01:30:58.587Z,3.20
2019-02-19T01:33:27.423Z,3.10
2019-02-19T01:35:54.409Z,3.00
2019-02-19T01:38:21.374Z,3.10
2019-02-19T01:40:48.255Z,3.00
2019-02-19T01:43:15.132Z,3.00
2019-02-19T01:45:42.066Z,2.90
2019-02-19T01:48:08.953Z,2.90
2019-02-19T01:50:35.888Z,2.90
2019-02-19T01:53:02.892Z,2.90
2019-02-19T01:55:29.818Z,3.00
2019-02-19T01:57:56.699Z,2.90
2019-02-19T02:00:23.731Z,2.90
2019-02-19T02:02:50.620Z,3.00
2019-02-19T02:05:17.528Z,3.20
2019-02-19T02:07:44.557Z,3.20
2019-02-19T02:10:11.615Z,3.20
2019-02-19T02:12:38.514Z,3.00
2019-02-19T02:15:05.689Z,3.00
2019-02-19T02:17:32.710Z,3.00
2019-02-19T02:19:59.649Z,3.00
2019-02-19T02:22:26.597Z,2.80
2019-02-19T02:24:53.513Z,2.80
2019-02-19T02:27:20.425Z,2.90
2019-02-19T02:29:47.486Z,2.80
2019-02-19T02:32:14.521Z,2.90
2019-02-19T02:34:41.493Z,2.90
2019-02-19T02:37:08.405Z,3.00
2019-02-19T02:39:35.452Z,2.90
2019-02-19T02:42:02.483Z,2.80
2019-02-19T02:44:29.470Z,2.90
2019-02-19T02:46:56.393Z,2.90
2019-02-19T02:49:23.271Z,2.90
2019-02-19T02:51:50.289Z,2.90
2019-02-19T02:54:17.194Z,2.80
2019-02-19T02:56:44.157Z,2.70
2019-02-19T02:59:11.065Z,2.70
2019-02-19T03:01:37.943Z,2.80
2019-02-19T03:04:04.944Z,2.90
2019-02-19T03:06:36.249Z,2.90
2019-02-19T03:09:03.997Z,2.80
2019-02-19T03:11:31.025Z,2.70
2019-02-19T03:13:57.896Z,2.80
2019-02-19T03:16:24.857Z,2.80
2019-02-19T03:18:51.753Z,2.80
2019-02-19T03:21:18.673Z,2.80
2019-02-19T03:23:45.648Z,2.80
2019-02-19T03:26:12.625Z,2.90
2019-02-19T03:28:39.664Z,2.80
2019-02-19T03:31:06.531Z,2.80
2019-02-19T03:33:33.463Z,2.80
2019-02-19T03:36:00.517Z,2.80
2019-02-19T03:38:27.380Z,2.80
2019-02-19T03:40:54.305Z,2.80
2019-02-19T03:43:21.320Z,2.80
2019-02-19T03:45:48.328Z,2.90
2019-02-19T03:48:15.238Z,2.90
2019-02-19T03:50:42.156Z,2.80
2019-02-19T03:53:09.055Z,2.80
2019-02-19T03:55:35.923Z,2.80
2019-02-19T03:58:02.963Z,2.80
2019-02-19T04:00:29.838Z,2.80
2019-02-19T04:02:56.883Z,2.70
2019-02-19T04:05:23.880Z,2.70
2019-02-19T04:07:50.980Z,2.80
2019-02-19T04:10:17.848Z,2.70
2019-02-19T04:12:45.140Z,2.70
2019-02-19T04:15:12.105Z,2.70
2019-02-19T04:17:39.105Z,2.60
2019-02-19T04:20:06.702Z,2.70
2019-02-19T04:22:33.668Z,2.70
2019-02-19T04:25:00.644Z,2.70
2019-02-19T04:27:28.352Z,2.80
2019-02-19T04:29:55.369Z,2.80
2019-02-19T04:32:22.424Z,2.80
2019-02-19T04:34:49.424Z,2.90
2019-02-19T04:37:16.290Z,2.90
2019-02-19T04:39:43.301Z,3.00
2019-02-19T04:42:10.226Z,3.00
2019-02-19T04:44:37.202Z,3.10
2019-02-19T04:47:04.218Z,3.20
2019-02-19T04:49:31.077Z,3.20
2019-02-19T04:51:58.032Z,3.20
2019-02-19T04:54:24.915Z,3.10
2019-02-19T04:56:51.884Z,3.10
2019-02-19T04:59:18.833Z,3.20
2019-02-19T05:01:45.769Z,3.20
2019-02-19T05:04:12.741Z,3.30
2019-02-19T05:06:39.685Z,3.30
2019-02-19T05:09:06.556Z,3.40
2019-02-19T05:11:33.614Z,3.40
2019-02-19T05:14:00.626Z,3.40
2019-02-19T05:16:27.547Z,3.40
2019-02-19T05:18:54.579Z,3.30
2019-02-19T05:21:21.615Z,3.40
2019-02-19T05:23:48.628Z,3.40
2019-02-19T05:26:15.636Z,3.50
2019-02-19T05:28:42.635Z,3.60
2019-02-19T05:31:09.608Z,3.60
2019-02-19T05:33:36.525Z,3.80
2019-02-19T05:36:03.425Z,3.70
2019-02-19T05:38:30.338Z,3.70
2019-02-19T05:40:57.221Z,3.70
2019-02-19T05:43:24.118Z,3.70
2019-02-19T05:45:51.149Z,3.80
2019-02-19T05:48:18.031Z,3.80
2019-02-19T05:50:45.027Z,3.90
2019-02-19T05:53:12.045Z,3.90
2019-02-19T05:55:38.996Z,3.70
2019-02-19T05:58:06.037Z,3.80
2019-02-19T06:00:33.033Z,3.70
2019-02-19T06:02:59.993Z,3.80
2019-02-19T06:05:27.002Z,3.90
2019-02-19T06:07:53.888Z,4.00
2019-02-19T06:10:20.818Z,4.00
2019-02-19T06:12:47.754Z,4.20
2019-02-19T06:15:14.761Z,4.30
2019-02-19T06:17:41.693Z,4.10
2019-02-19T06:20:08.716Z,4.10
2019-02-19T06:22:35.702Z,4.00
2019-02-19T06:25:03.190Z,4.00
2019-02-19T06:27:30.158Z,4.10
2019-02-19T06:29:57.162Z,4.10
2019-02-19T06:32:24.069Z,4.10
2019-02-19T06:34:50.954Z,4.10
2019-02-19T06:37:17.889Z,4.10
2019-02-19T06:39:46.789Z,4.20
2019-02-19T06:42:13.723Z,4.30
2019-02-19T06:44:41.384Z,4.40
2019-02-19T06:47:08.406Z,4.40
2019-02-19T06:49:35.406Z,4.30
2019-02-19T06:52:02.732Z,4.20
2019-02-19T06:54:29.735Z,4.20
2019-02-19T06:56:56.641Z,4.10
2019-02-19T06:59:23.573Z,4.10
2019-02-19T07:01:52.363Z,4.10
2019-02-19T07:04:24.577Z,4.20
2019-02-19T07:06:51.456Z,4.20
2019-02-19T07:09:18.418Z,4.30
2019-02-19T07:11:45.369Z,4.30
2019-02-19T07:14:12.428Z,4.30
2019-02-19T07:16:39.388Z,4.30
2019-02-19T07:19:06.326Z,4.30
2019-02-19T07:21:33.236Z,4.30
2019-02-19T07:24:04.347Z,4.40
2019-02-19T07:26:29.019Z,4.40
2019-02-19T07:28:56.024Z,4.40
2019-02-19T07:31:23.037Z,4.40
2019-02-19T07:33:49.946Z,4.50
2019-02-19T07:36:16.883Z,4.40
2019-02-19T07:38:43.966Z,4.60
2019-02-19T07:41:11.031Z,4.60
2019-02-19T07:43:38.008Z,4.60
2019-02-19T07:46:05.063Z,4.60
2019-02-19T07:48:32.030Z,4.60
2019-02-19T07:50:58.956Z,4.60
2019-02-19T07:53:25.876Z,4.60
2019-02-19T07:55:54.682Z,4.80
2019-02-19T07:58:21.595Z,4.90
2019-02-19T08:00:48.461Z,5.00
2019-02-19T08:03:15.419Z,5.10
2019-02-19T08:05:42.354Z,5.30
2019-02-19T08:08:09.289Z,5.30
2019-02-19T08:10:36.284Z,5.30
2019-02-19T08:13:03.223Z,5.30
2019-02-19T08:15:30.322Z,5.30
2019-02-19T08:17:57.190Z,5.20
2019-02-19T08:20:24.113Z,5.20
2019-02-19T08:22:51.178Z,5.20
2019-02-19T08:25:18.079Z,5.40
2019-02-19T08:27:45.049Z,5.40
2019-02-19T08:30:12.051Z,5.50
2019-02-19T08:32:39.178Z,5.60
2019-02-19T08:35:06.205Z,5.60
2019-02-19T08:37:33.098Z,5.50
2019-02-19T08:40:00.279Z,5.40
2019-02-19T08:42:27.419Z,5.40
2019-02-19T08:44:54.329Z,5.50
2019-02-19T08:47:21.228Z,5.50
2019-02-19T08:49:48.148Z,5.50
2019-02-19T08:52:15.110Z,5.60
2019-02-19T08:54:42.029Z,5.60
2019-02-19T08:57:09.024Z,5.70
2019-02-19T08:59:36.131Z,5.70
2019-02-19T09:02:03.132Z,5.80
2019-02-19T09:04:30.255Z,5.70
2019-02-19T09:06:57.325Z,5.60
2019-02-19T09:09:24.321Z,5.60
2019-02-19T09:11:51.231Z,5.60
2019-02-19T09:14:18.184Z,5.70
2019-02-19T09:16:45.180Z,5.70
2019-02-19T09:19:12.066Z,5.60
2019-02-19T09:21:39.457Z,5.60
2019-02-19T09:24:09.492Z,5.60
2019-02-19T09:26:35.211Z,5.60
2019-02-19T09:29:02.174Z,5.80
2019-02-19T09:31:29.060Z,5.80
2019-02-19T09:33:56.101Z,5.90
2019-02-19T09:36:22.989Z,6.00
2019-02-19T09:38:49.921Z,6.00
2019-02-19T09:41:16.916Z,5.90
2019-02-19T09:43:43.954Z,6.00
2019-02-19T09:46:10.877Z,6.00
2019-02-19T09:48:37.777Z,6.10
2019-02-19T09:51:04.761Z,6.20
2019-02-19T09:53:31.656Z,6.20
2019-02-19T09:55:58.652Z,6.30
2019-02-19T09:58:25.523Z,6.30
2019-02-19T10:00:52.592Z,6.30
2019-02-19T10:03:21.050Z,6.30
2019-02-19T10:05:48.226Z,6.50
2019-02-19T10:08:15.257Z,6.80
2019-02-19T10:10:42.234Z,7.00
2019-02-19T10:13:09.254Z,7.10
2019-02-19T10:15:36.272Z,7.30
2019-02-19T10:18:09.867Z,7.30
2019-02-19T10:20:31.969Z,7.40
2019-02-19T10:22:58.884Z,7.40
2019-02-19T10:25:25.868Z,7.40
2019-02-19T10:27:52.827Z,7.50
2019-02-19T10:30:19.878Z,7.60
2019-02-19T10:32:46.852Z,7.70
2019-02-19T10:35:13.918Z,7.70
2019-02-19T10:37:40.950Z,7.70
2019-02-19T10:40:10.196Z,7.70
2019-02-19T10:42:37.196Z,7.80
2019-02-19T10:45:04.658Z,7.90
2019-02-19T10:47:31.580Z,8.10
2019-02-19T10:49:58.460Z,8.30
2019-02-19T10:52:25.528Z,8.40
2019-02-19T10:54:52.708Z,8.50
2019-02-19T10:57:19.644Z,8.50
2019-02-19T10:59:47.724Z,8.50
2019-02-19T11:02:14.858Z,8.50
2019-02-19T11:04:41.958Z,8.50
2019-02-19T11:07:09.202Z,8.50
2019-02-19T11:09:36.197Z,8.50
2019-02-19T11:12:03.264Z,8.60
2019-02-19T11:14:30.244Z,8.80
2019-02-19T11:16:57.236Z,9.00
2019-02-19T11:19:24.230Z,9.10
2019-02-19T11:21:51.273Z,9.20
2019-02-19T11:24:18.281Z,9.30
2019-02-19T11:26:45.176Z,9.40
2019-02-19T11:29:12.210Z,9.40
2019-02-19T11:31:39.089Z,9.50
2019-02-19T11:34:06.008Z,9.60
2019-02-19T11:36:32.907Z,9.60
2019-02-19T11:38:59.845Z,9.70
2019-02-19T11:41:26.781Z,9.80
2019-02-19T11:43:53.768Z,9.80
2019-02-19T11:46:20.690Z,9.70
2019-02-19T11:48:47.649Z,9.60
2019-02-19T11:51:14.780Z,9.50
2019-02-19T11:53:41.825Z,9.40
2019-02-19T11:56:08.705Z,9.40
2019-02-19T11:58:35.639Z,9.40
2019-02-19T12:01:03.678Z,9.40
2019-02-19T12:03:30.691Z,9.30
2019-02-19T12:05:57.727Z,9.30
2019-02-19T12:08:24.624Z,9.40
2019-02-19T12:10:51.709Z,9.60
2019-02-19T12:13:18.721Z,9.70
2019-02-19T12:15:45.782Z,9.70
2019-02-19T12:18:12.714Z,9.80
2019-02-19T12:20:39.689Z,9.90
2019-02-19T12:23:06.609Z,9.80
2019-02-19T12:25:33.581Z,9.90
2019-02-19T12:28:00.480Z,10.00
2019-02-19T12:30:27.515Z,10.00
2019-02-19T12:32:54.513Z,10.10
2019-02-19T12:35:21.396Z,10.20
2019-02-19T12:37:48.355Z,10.10
2019-02-19T12:40:15.388Z,10.10
2019-02-19T12:42:42.436Z,10.10
2019-02-19T12:45:09.799Z,10.10
2019-02-19T12:47:36.733Z,10.10
2019-02-19T12:50:04.434Z,10.00
2019-02-19T12:52:31.475Z,10.00
2019-02-19T12:54:58.535Z,10.00
2019-02-19T12:57:25.599Z,10.10
2019-02-19T12:59:56.606Z,10.10
2019-02-19T13:02:21.535Z,10.10
2019-02-19T13:04:48.504Z,10.10
2019-02-19T13:07:15.503Z,10.10
2019-02-19T13:09:42.512Z,10.20
2019-02-19T13:12:10.610Z,10.30
2019-02-19T13:14:38.031Z,10.30
2019-02-19T13:17:05.179Z,10.30
2019-02-19T13:19:32.525Z,10.30
2019-02-19T13:21:59.497Z,10.30
2019-02-19T13:24:26.410Z,10.30
2019-02-19T13:26:53.487Z,10.40
2019-02-19T13:29:20.886Z,10.50
2019-02-19T13:31:47.842Z,10.50
2019-02-19T13:34:14.717Z,10.50
2019-02-19T13:36:42.024Z,10.60
2019-02-19T13:39:09.171Z,10.60
2019-02-19T13:41:37.056Z,10.70
2019-02-19T13:44:04.216Z,10.80
2019-02-19T13:46:31.134Z,11.00
2019-02-19T13:48:58.294Z,11.10
2019-02-19T13:51:25.452Z,11.10
2019-02-19T13:53:57.352Z,11.10
2019-02-19T13:56:24.249Z,11.20
2019-02-19T13:58:51.345Z,11.30
2019-02-19T14:01:18.767Z,11.40
2019-02-19T14:03:45.726Z,11.50
2019-02-19T14:06:12.776Z,11.60
2019-02-19T14:08:39.798Z,11.60
2019-02-19T14:11:06.751Z,11.60
2019-02-19T14:13:33.905Z,11.50
2019-02-19T14:16:14.829Z,11.40
2019-02-19T14:18:55.363Z,11.30
2019-02-19T14:21:33.401Z,11.20
2019-02-19T14:24:18.994Z,11.10
2019-02-19T14:26:59.678Z,11.10
2019-02-19T14:29:45.541Z,11.10
2019-02-19T14:32:29.946Z,11.20
2019-02-19T14:35:01.947Z,11.10
2019-02-19T14:37:47.540Z,11.20
2019-02-19T14:40:22.722Z,11.20
2019-02-19T14:43:04.056Z,11.20
2019-02-19T14:45:41.758Z,11.20
2019-02-19T14:48:25.821Z,11.20
2019-02-19T14:51:09.849Z,11.30
2019-02-19T14:53:45.051Z,11.30
2019-02-19T14:56:25.893Z,11.30
2019-02-19T14:58:54.765Z,11.30
2019-02-19T15:01:26.576Z,11.40
2019-02-19T15:04:12.294Z,11.40
2019-02-19T15:06:50.300Z,11.40
2019-02-19T15:09:34.601Z,11.40
2019-02-19T15:12:06.418Z,11.40
2019-02-19T15:14:35.420Z,11.30
2019-02-19T15:17:13.149Z,11.30
2019-02-19T15:19:42.066Z,11.30
2019-02-19T15:22:13.990Z,11.20
2019-02-19T15:24:59.460Z,11.10
2019-02-19T15:27:43.757Z,11.10
2019-02-19T15:30:15.506Z,11.10
2019-02-19T15:32:44.442Z,11.00
2019-02-19T15:35:28.581Z,11.00
2019-02-19T15:38:00.619Z,11.00
2019-02-19T15:40:32.393Z,10.90
2019-02-19T15:43:18.150Z,10.90
2019-02-19T15:46:05.313Z,10.90
2019-02-19T15:48:46.377Z,10.80
2019-02-19T15:51:31.898Z,10.80
2019-02-19T15:54:01.401Z,10.80
2019-02-19T15:56:30.232Z,10.70
2019-02-19T15:58:59.165Z,10.70
2019-02-19T16:01:37.041Z,10.70
2019-02-19T16:04:06.125Z,10.60
2019-02-19T16:06:35.156Z,10.60
2019-02-19T16:09:11.181Z,10.60
2019-02-19T16:11:40.096Z,10.50
2019-02-19T16:14:16.694Z,10.50
2019-02-19T16:16:48.836Z,10.40
2019-02-19T16:19:17.830Z,10.40
2019-02-19T16:21:46.831Z,10.40
2019-02-19T16:24:33.666Z,10.30
2019-02-19T16:27:02.723Z,10.30
2019-02-19T16:29:37.719Z,10.20
2019-02-19T16:32:06.635Z,10.20
2019-02-19T16:34:35.690Z,10.20
2019-02-19T16:37:04.581Z,10.10
2019-02-19T16:39:42.761Z,10.00
2019-02-19T16:42:28.460Z,10.00
2019-02-19T16:44:57.629Z,9.90
2019-02-19T16:47:26.674Z,9.90
2019-02-19T16:50:07.357Z,9.90
2019-02-19T16:52:33.802Z,9.80
2019-02-19T16:55:05.875Z,9.80
2019-02-19T16:57:35.220Z,9.80
2019-02-19T17:00:11.251Z,9.70
2019-02-19T17:02:46.347Z,9.70
2019-02-19T17:05:15.279Z,9.70
2019-02-19T17:07:54.663Z,9.70
2019-02-19T17:10:26.623Z,9.60
2019-02-19T17:12:59.688Z,9.60
2019-02-19T17:15:30.089Z,9.60
2019-02-19T17:17:59.065Z,9.60
2019-02-19T17:20:29.437Z,9.50
2019-02-19T17:22:58.682Z,9.50
2019-02-19T17:25:27.613Z,9.50
2019-02-19T17:28:02.433Z,9.40
2019-02-19T17:30:33.092Z,9.40
2019-02-19T17:33:20.142Z,9.40
2019-02-19T17:36:01.309Z,9.30
2019-02-19T17:38:48.257Z,9.20
2019-02-19T17:41:19.877Z,9.20
2019-02-19T17:43:49.036Z,9.10
2019-02-19T17:46:30.151Z,9.00
2019-02-19T17:48:59.195Z,9.00
2019-02-19T17:51:28.178Z,8.90
2019-02-19T17:54:06.466Z,8.80
2019-02-19T17:56:50.424Z,8.70
2019-02-19T17:59:22.405Z,8.60
2019-02-19T18:01:51.329Z,8.60
2019-02-19T18:04:20.271Z,8.40
2019-02-19T18:06:51.986Z,8.30
2019-02-19T18:09:36.358Z,8.20
2019-02-19T18:12:05.288Z,8.10
2019-02-19T18:14:46.375Z,8.00
2019-02-19T18:17:20.833Z,8.00
2019-02-19T18:19:48.138Z,7.90
2019-02-19T18:22:15.037Z,7.90
2019-02-19T18:24:44.169Z,7.80
2019-02-19T18:27:11.230Z,7.70
2019-02-19T18:29:38.217Z,7.70
2019-02-19T18:32:05.173Z,7.60
2019-02-19T18:34:32.225Z,7.60
2019-02-19T18:36:59.263Z,7.50
2019-02-19T18:39:26.345Z,7.40
2019-02-19T18:41:53.386Z,7.30
2019-02-19T18:44:20.682Z,7.10
2019-02-19T18:46:47.704Z,7.00
2019-02-19T18:49:15.323Z,6.90
2019-02-19T18:51:42.348Z,6.90
2019-02-19T18:54:12.085Z,6.80
2019-02-19T18:56:40.298Z,6.70
2019-02-19T18:59:08.622Z,6.60
2019-02-19T19:01:37.889Z,6.50
2019-02-19T19:04:04.982Z,6.50
2019-02-19T19:06:31.963Z,6.30
2019-02-19T19:08:59.022Z,6.30
2019-02-19T19:11:26.081Z,6.30
2019-02-19T19:13:53.261Z,6.20
2019-02-19T19:16:20.422Z,6.10
2019-02-19T19:18:47.613Z,6.10
2019-02-19T19:21:14.924Z,6.00
2019-02-19T19:23:41.839Z,6.00
2019-02-19T19:26:09.021Z,5.90
2019-02-19T19:28:35.914Z,5.80
2019-02-19T19:31:02.985Z,5.60
2019-02-19T19:33:30.201Z,5.70
2019-02-19T19:35:59.396Z,5.70
2019-02-19T19:38:26.572Z,5.70
2019-02-19T19:40:53.830Z,5.70
2019-02-19T19:43:21.047Z,5.70
2019-02-19T19:45:48.405Z,5.60
2019-02-19T19:48:15.558Z,5.60
2019-02-19T19:50:42.523Z,5.60
2019-02-19T19:53:09.598Z,5.60
2019-02-19T19:55:36.628Z,5.60
2019-02-19T19:58:03.778Z,5.70
2019-02-19T20:00:30.859Z,5.60
2019-02-19T20:02:59.922Z,5.60
2019-02-19T20:05:27.037Z,5.60
2019-02-19T20:07:55.108Z,5.50
2019-02-19T20:10:22.363Z,5.50
2019-02-19T20:12:49.404Z,5.50
2019-02-19T20:15:16.425Z,5.50
2019-02-19T20:17:43.605Z,5.50
2019-02-19T20:20:10.884Z,5.30
2019-02-19T20:22:38.072Z,5.10
2019-02-19T20:25:05.717Z,5.20
2019-02-19T20:27:33.012Z,5.20
2019-02-19T20:30:00.266Z,5.30
2019-02-19T20:32:27.470Z,5.30
2019-02-19T20:34:54.681Z,5.20
2019-02-19T20:37:22.285Z,5.10
2019-02-19T20:39:49.589Z,5.10
2019-02-19T20:42:16.746Z,5.00
2019-02-19T20:44:43.947Z,4.90
2019-02-19T20:47:12.600Z,4.90
2019-02-19T20:49:39.764Z,4.80
2019-02-19T20:52:06.900Z,4.90
2019-02-19T20:54:33.864Z,4.90
2019-02-19T20:57:00.821Z,4.80
2019-02-19T20:59:29.044Z,4.80
2019-02-19T21:01:56.013Z,4.90
2019-02-19T21:04:23.143Z,4.80
2019-02-19T21:06:51.216Z,4.80
2019-02-19T21:09:18.674Z,4.80
2019-02-19T21:11:45.732Z,4.90
2019-02-19T21:14:12.842Z,5.00
2019-02-19T21:16:39.883Z,4.90
2019-02-19T21:19:07.139Z,4.70
2019-02-19T21:21:34.495Z,4.70
2019-02-19T21:24:01.890Z,4.50
2019-02-19T21:26:30.056Z,4.50
2019-02-19T21:28:57.682Z,4.50
2019-02-19T21:31:24.703Z,4.50
2019-02-19T21:33:51.613Z,4.40
2019-02-19T21:36:18.579Z,4.30
2019-02-19T21:38:45.612Z,4.30
2019-02-19T21:41:12.657Z,4.40
2019-02-19T21:43:39.697Z,4.50
2019-02-19T21:46:06.749Z,4.40
2019-02-19T21:48:33.867Z,4.50
2019-02-19T21:51:00.785Z,4.30
2019-02-19T21:53:27.885Z,4.40
2019-02-19T21:55:54.860Z,4.30
2019-02-19T21:58:21.906Z,4.40
2019-02-19T22:00:48.949Z,4.20
2019-02-19T22:03:15.910Z,4.10
2019-02-19T22:05:43.007Z,4.00
2019-02-19T22:08:10.099Z,4.00
2019-02-19T22:10:37.180Z,4.00
2019-02-19T22:13:04.221Z,4.00
2019-02-19T22:15:31.249Z,4.10
2019-02-19T22:17:58.298Z,4.20
2019-02-19T22:20:32.858Z,4.10
2019-02-19T22:22:59.869Z,4.00
2019-02-19T22:25:27.016Z,4.10
2019-02-19T22:27:53.930Z,4.00
2019-02-19T22:30:20.852Z,4.10
2019-02-19T22:32:47.818Z,4.20
2019-02-19T22:35:14.854Z,4.10
2019-02-19T22:37:41.845Z,4.10
2019-02-19T22:40:08.889Z,3.90
2019-02-19T22:42:36.149Z,4.00
2019-02-19T22:45:03.323Z,4.00
2019-02-19T22:47:30.369Z,4.10
2019-02-19T22:49:57.337Z,4.10
2019-02-19T22:52:24.329Z,4.00
2019-02-19T22:54:59.260Z,3.90
2019-02-19T22:57:26.251Z,3.90
2019-02-19T22:59:53.329Z,4.00
2019-02-19T23:02:20.927Z,3.90
2019-02-19T23:04:48.025Z,3.90
2019-02-19T23:07:14.981Z,3.90
2019-02-19T23:09:41.920Z,3.80
2019-02-19T23:12:08.843Z,3.70
2019-02-19T23:14:35.756Z,3.60
2019-02-19T23:17:03.608Z,3.70
2019-02-19T23:19:30.548Z,3.70
2019-02-19T23:21:57.750Z,3.60
2019-02-19T23:24:24.717Z,3.60
2019-02-19T23:26:51.735Z,3.60
2019-02-19T23:29:18.691Z,3.50
2019-02-19T23:31:45.689Z,3.40
2019-02-19T23:34:12.699Z,3.50
2019-02-19T23:36:47.631Z,3.70
2019-02-19T23:39:14.637Z,3.80
2019-02-19T23:41:41.604Z,3.70
2019-02-19T23:44:08.551Z,3.80
2019-02-19T23:46:35.467Z,3.80
2019-02-19T23:49:02.593Z,3.70
2019-02-19T23:51:29.820Z,3.70
2019-02-19T23:53:58.692Z,3.40
2019-02-19T23:56:25.910Z,3.40
2019-02-19T23:58:53.247Z,3.40
